GCLA/SPC METAR and TAF weather

Enter ICAO airport designator
Station Type Date Time Source
GCLA METAR 2018/01/19 17:30 UTC NOAA

GCLA 191730Z 36014KT 9999 FEW035 SCT045 19/13 Q1026


Station Type Date Time Source
GCLA Decoded METAR 2018/01/19 17:30 UTC NOAA

La Palma / Aeropuerto, Spain (GCLA) 28-37N 017-45W 31M
Jan 19, 2018 - 12:30 PM EST / 2018.01.19 1730 UTC
Wind: from the N (360 degrees) at 16 MPH (14 KT):0
Visibility: greater than 7 mile(s):0
Sky conditions: partly cloudy
Temperature: 66 F (19 C)
Dew Point: 55 F (13 C)
Relative Humidity: 68%
Pressure (altimeter): 30.30 in. Hg (1026 hPa)
ob: GCLA 191730Z 36014KT 9999 FEW035 SCT045 19/13 Q1026
cycle: 17

Station Type Date Time Source
GCLA TAF 2018/01/19 15:29 UTC NOAA

TAF GCLA 191400Z 1915/2015 01012KT 9999 BKN040 TX22/2014Z TN17/2006Z PROB40
TEMPO 1915/2015 01015G25KT PROB40
TEMPO 1922/2015 DZRA


Example: see airport list